Onawa, Iowa
Current Conditions -  °F | °C
As of 6:54 PM on Thursday 18 Dec 2014 (Local Time) from KTQE Reporting Station
Overcast Overcast  
Wind Chill: 26°   Ceiling: 2400
Heat Index: 31°   Visibility: 8mi
Dew Point: 26°   Wind: 5mph
Humidity: 82%   Direction: 130°SE
Pressure: 30.22"   Gusts: NA
Location:  42.03°N, 96.1°W
Report Text: KTQE 190054Z AUTO 13004KT 8SM SCT015 BKN024 OVC032 M01/M03 A3022 RMK AO2 SLP243 T10061033
Loading
Personal Weather Stations






























Interactive Weather Map New forecast layout! Learn more

10-Day Weather Forecast

Advertisements
Track Severe Weather on mobile